createdAt,value
2024-04-24T00:01:55.842Z,483.37
2024-04-24T00:04:25.097Z,507.15
2024-04-24T00:06:52.919Z,335.00
2024-04-24T00:09:20.266Z,334.55
2024-04-24T00:11:47.699Z,346.13
2024-04-24T00:14:15.160Z,355.98
2024-04-24T00:16:42.633Z,594.97
2024-04-24T00:19:10.026Z,272.20
2024-04-24T00:21:37.414Z,241.63
2024-04-24T00:24:04.923Z,272.10
2024-04-24T00:26:34.019Z,251.47
2024-04-24T00:29:02.145Z,190.80
2024-04-24T00:31:29.510Z,213.35
2024-04-24T00:33:56.911Z,211.80
2024-04-24T00:36:27.883Z,140.85
2024-04-24T00:38:55.322Z,58.00
2024-04-24T00:41:22.791Z,170.00
2024-04-24T00:43:49.892Z,211.35
2024-04-24T00:46:18.233Z,207.88
2024-04-24T00:48:45.804Z,150.70
2024-04-24T00:51:13.868Z,180.73
2024-04-24T00:53:41.357Z,186.73
2024-04-24T00:56:08.898Z,139.45
2024-04-24T00:58:38.789Z,155.55
2024-04-24T01:01:10.834Z,170.87
2024-04-24T01:03:38.615Z,163.45
2024-04-24T01:06:06.135Z,211.27
2024-04-24T01:08:33.373Z,200.77
2024-04-24T01:11:01.358Z,170.13
2024-04-24T01:13:28.832Z,237.27
2024-04-24T01:15:57.937Z,198.95
2024-04-24T01:18:27.462Z,175.90
2024-04-24T01:20:57.148Z,173.63
2024-04-24T01:23:50.668Z,230.00
2024-04-24T01:26:43.013Z,237.32
2024-04-24T01:29:10.125Z,294.73
2024-04-24T01:31:37.147Z,249.48
2024-04-24T01:34:04.571Z,327.95
2024-04-24T01:36:32.046Z,236.77
2024-04-24T01:38:59.504Z,303.35
2024-04-24T01:41:26.998Z,287.25
2024-04-24T01:43:54.461Z,293.00
2024-04-24T01:46:21.869Z,260.50
2024-04-24T01:48:49.321Z,277.03
2024-04-24T01:51:16.892Z,147.37
2024-04-24T01:53:44.280Z,201.52
2024-04-24T01:56:12.712Z,169.77
2024-04-24T01:58:40.144Z,177.13
2024-04-24T02:01:07.508Z,143.90
2024-04-24T02:03:34.983Z,144.80
2024-04-24T02:06:02.615Z,123.82
2024-04-24T02:08:29.957Z,167.80
2024-04-24T02:10:57.332Z,135.55
2024-04-24T02:13:24.670Z,134.35
2024-04-24T02:15:52.809Z,16.58
2024-04-24T02:18:20.372Z,12.30
2024-04-24T02:20:47.842Z,11.03
2024-04-24T02:23:21.554Z,72.80
2024-04-24T02:25:49.992Z,146.63
2024-04-24T02:28:17.592Z,122.18
2024-04-24T02:30:45.715Z,110.13
2024-04-24T02:33:13.036Z,42.47
2024-04-24T02:35:40.576Z,115.53
2024-04-24T02:38:09.144Z,74.18
2024-04-24T02:40:36.543Z,125.15
2024-04-24T02:43:04.212Z,109.53
2024-04-24T02:45:31.629Z,80.28
2024-04-24T02:47:59.084Z,100.63
2024-04-24T02:50:26.733Z,115.30
2024-04-24T02:52:54.203Z,111.45
2024-04-24T02:55:21.975Z,80.55
2024-04-24T02:57:49.335Z,118.88
2024-04-24T03:00:16.983Z,113.93
2024-04-24T03:02:44.945Z,86.13
2024-04-24T03:05:12.375Z,74.10
2024-04-24T03:07:40.358Z,28.70
2024-04-24T03:10:07.908Z,21.42
2024-04-24T03:12:35.290Z,98.45
2024-04-24T03:15:02.823Z,112.72
2024-04-24T03:17:30.464Z,100.90
2024-04-24T03:19:58.066Z,110.80
2024-04-24T03:22:25.456Z,87.67
2024-04-24T03:24:52.764Z,50.10
2024-04-24T03:27:20.256Z,35.10
2024-04-24T03:29:57.550Z,35.40
2024-04-24T03:32:27.392Z,38.60
2024-04-24T03:34:54.955Z,85.13
2024-04-24T03:37:22.394Z,25.83
2024-04-24T03:39:49.809Z,73.32
2024-04-24T03:42:17.187Z,86.05
2024-04-24T03:44:44.542Z,77.32
2024-04-24T03:47:12.038Z,85.13
2024-04-24T03:49:39.550Z,72.18
2024-04-24T03:52:07.051Z,67.85
2024-04-24T03:54:34.467Z,78.70
2024-04-24T03:57:01.830Z,72.38
2024-04-24T03:59:29.322Z,74.82
2024-04-24T04:01:56.838Z,45.63
2024-04-24T04:04:24.345Z,12.20
2024-04-24T04:06:51.866Z,77.90
2024-04-24T04:09:19.228Z,72.05
2024-04-24T04:11:46.642Z,48.35
2024-04-24T04:14:14.289Z,43.58
2024-04-24T04:16:41.706Z,67.17
2024-04-24T04:19:09.145Z,85.03
2024-04-24T04:21:36.581Z,73.57
2024-04-24T04:24:04.004Z,84.30
2024-04-24T04:26:31.707Z,75.72
2024-04-24T04:28:58.688Z,39.55
2024-04-24T04:31:26.313Z,54.42
2024-04-24T04:33:53.946Z,50.27
2024-04-24T04:36:21.476Z,29.70
2024-04-24T04:38:48.481Z,26.02
2024-04-24T04:41:15.871Z,10.23
2024-04-24T04:43:43.293Z,7.15
2024-04-24T04:46:10.644Z,11.40
2024-04-24T04:48:38.003Z,20.13
2024-04-24T04:51:06.416Z,31.83
2024-04-24T04:53:33.872Z,21.85
2024-04-24T04:56:00.838Z,39.47
2024-04-24T04:58:28.223Z,36.35
2024-04-24T05:00:55.720Z,35.63
2024-04-24T05:03:23.380Z,21.58
2024-04-24T05:05:50.471Z,9.05
2024-04-24T05:08:17.522Z,32.55
2024-04-24T05:10:44.909Z,17.45
2024-04-24T05:13:13.079Z,28.35
2024-04-24T05:15:40.549Z,21.50
2024-04-24T05:18:10.834Z,38.58
2024-04-24T05:20:38.616Z,32.30
2024-04-24T05:23:06.831Z,24.02
2024-04-24T05:25:34.090Z,15.30
2024-04-24T05:28:20.589Z,7.80
2024-04-24T05:30:48.608Z,12.00
2024-04-24T05:33:16.081Z,18.48
2024-04-24T05:35:46.716Z,39.38
2024-04-24T05:38:14.264Z,26.95
2024-04-24T05:40:41.664Z,30.77
2024-04-24T05:43:10.374Z,42.30
2024-04-24T05:45:38.793Z,32.03
2024-04-24T05:48:09.535Z,19.42
2024-04-24T05:50:37.259Z,6.00
2024-04-24T05:53:04.714Z,45.10
2024-04-24T05:55:32.221Z,34.30
2024-04-24T05:57:59.663Z,35.35
2024-04-24T06:00:27.030Z,21.60
2024-04-24T06:02:55.336Z,31.23
2024-04-24T06:05:22.840Z,21.40
2024-04-24T06:07:50.490Z,33.42
2024-04-24T06:10:17.975Z,16.58
2024-04-24T06:12:45.516Z,24.85
2024-04-24T06:15:12.918Z,17.40
2024-04-24T06:17:40.546Z,24.92
2024-04-24T06:20:08.684Z,26.13
2024-04-24T06:22:36.159Z,27.27
2024-04-24T06:25:03.603Z,28.73
2024-04-24T06:27:31.033Z,21.23
2024-04-24T06:29:59.221Z,24.42
2024-04-24T06:32:26.861Z,31.73
2024-04-24T06:34:55.165Z,9.55
2024-04-24T06:37:22.611Z,28.33
2024-04-24T06:39:50.009Z,30.75
2024-04-24T06:42:17.356Z,15.63
2024-04-24T06:44:45.078Z,19.08
2024-04-24T06:47:12.617Z,15.73
2024-04-24T06:49:40.361Z,40.08
2024-04-24T06:52:08.330Z,16.48
2024-04-24T06:54:35.725Z,38.95
2024-04-24T06:57:03.321Z,24.15
2024-04-24T06:59:30.771Z,26.02
2024-04-24T07:01:58.229Z,9.88
2024-04-24T07:04:25.853Z,31.33
2024-04-24T07:06:53.369Z,23.75
2024-04-24T07:09:20.746Z,26.90
2024-04-24T07:11:49.045Z,24.23
2024-04-24T07:14:16.563Z,28.75
2024-04-24T07:16:44.043Z,42.78
2024-04-24T07:19:13.555Z,23.85
2024-04-24T07:21:42.036Z,33.33
2024-04-24T07:24:09.518Z,33.03
2024-04-24T07:26:37.182Z,19.15
2024-04-24T07:29:04.681Z,22.73
2024-04-24T07:31:32.388Z,41.38
2024-04-24T07:33:59.935Z,22.77
2024-04-24T07:36:27.495Z,23.75
2024-04-24T07:38:55.007Z,15.43
2024-04-24T07:41:22.466Z,12.13
2024-04-24T07:43:49.905Z,23.00
2024-04-24T07:46:17.298Z,33.30
2024-04-24T07:48:44.819Z,40.92
2024-04-24T07:51:11.911Z,51.90
2024-04-24T07:53:39.779Z,32.95
2024-04-24T07:56:07.671Z,35.08
2024-04-24T07:58:35.196Z,35.35
2024-04-24T08:01:02.735Z,41.95
2024-04-24T08:03:30.197Z,49.70
2024-04-24T08:05:57.671Z,29.42
2024-04-24T08:08:25.259Z,15.63
2024-04-24T08:10:52.995Z,19.75
2024-04-24T08:13:20.793Z,25.70
2024-04-24T08:15:48.326Z,18.73
2024-04-24T08:18:15.905Z,20.20
2024-04-24T08:20:43.351Z,13.02
2024-04-24T08:23:14.414Z,9.48
2024-04-24T08:25:43.755Z,11.52
2024-04-24T08:28:12.760Z,16.50
2024-04-24T08:30:42.683Z,19.98
2024-04-24T08:33:10.397Z,16.98
2024-04-24T08:35:37.931Z,6.70
2024-04-24T08:38:05.524Z,5.93
2024-04-24T08:40:33.118Z,8.55
2024-04-24T08:43:00.464Z,11.70
2024-04-24T08:45:28.852Z,15.67
2024-04-24T08:48:00.975Z,12.70
2024-04-24T08:50:28.609Z,20.33
2024-04-24T08:53:03.740Z,11.23
2024-04-24T08:55:33.865Z,4.45
2024-04-24T08:58:01.595Z,6.32
2024-04-24T09:00:30.650Z,4.45
2024-04-24T09:03:02.633Z,2.97
2024-04-24T09:05:32.825Z,7.05
2024-04-24T09:08:02.536Z,10.95
2024-04-24T09:10:30.089Z,13.40
2024-04-24T09:12:58.284Z,15.95
2024-04-24T09:15:29.025Z,13.85
2024-04-24T09:18:03.252Z,11.75
2024-04-24T09:20:34.635Z,18.38
2024-04-24T09:23:03.136Z,10.60
2024-04-24T09:25:30.609Z,10.75
2024-04-24T09:27:58.090Z,17.17
2024-04-24T09:30:28.747Z,6.97
2024-04-24T09:32:57.369Z,19.50
2024-04-24T09:35:25.328Z,20.38
2024-04-24T09:37:53.779Z,15.82
2024-04-24T09:40:21.286Z,14.30
2024-04-24T09:42:48.978Z,22.15
2024-04-24T09:45:19.675Z,20.15
2024-04-24T09:47:47.305Z,26.95
2024-04-24T09:50:15.015Z,15.25
2024-04-24T09:52:48.006Z,21.73
2024-04-24T09:55:16.101Z,17.75
2024-04-24T09:57:48.511Z,25.17
2024-04-24T10:00:16.309Z,11.70
2024-04-24T10:02:49.971Z,12.65
2024-04-24T10:05:21.797Z,8.50
2024-04-24T10:08:08.731Z,12.10
2024-04-24T10:10:48.558Z,8.00
2024-04-24T10:13:18.362Z,12.77
2024-04-24T10:15:49.572Z,13.63
2024-04-24T10:18:18.017Z,32.93
2024-04-24T10:20:46.347Z,29.45
2024-04-24T10:23:14.844Z,14.00
2024-04-24T10:25:42.945Z,21.80
2024-04-24T10:28:10.550Z,37.25
2024-04-24T10:30:38.949Z,25.38
2024-04-24T10:33:08.051Z,17.90
2024-04-24T10:35:37.832Z,11.05
2024-04-24T10:38:09.423Z,27.10
2024-04-24T10:40:38.000Z,26.43
2024-04-24T10:43:11.258Z,24.00
2024-04-24T10:45:42.753Z,28.63
2024-04-24T10:48:14.542Z,25.95
2024-04-24T10:50:43.183Z,28.88
2024-04-24T10:53:14.614Z,24.13
2024-04-24T10:56:00.429Z,22.67
2024-04-24T10:58:30.899Z,23.88
2024-04-24T11:01:07.377Z,9.25
2024-04-24T11:03:34.844Z,13.10
2024-04-24T11:06:13.338Z,13.57
2024-04-24T11:08:44.306Z,23.15
2024-04-24T11:11:11.862Z,18.23
2024-04-24T11:13:40.564Z,15.80
2024-04-24T11:16:10.899Z,12.97
2024-04-24T11:18:39.102Z,18.27
2024-04-24T11:21:06.300Z,15.68
2024-04-24T11:23:46.878Z,12.70
2024-04-24T11:26:14.298Z,31.48
2024-04-24T11:28:41.938Z,21.50
2024-04-24T11:31:11.180Z,18.77
2024-04-24T11:33:39.480Z,4.07
2024-04-24T11:36:07.101Z,6.13
2024-04-24T11:38:35.904Z,13.88
2024-04-24T11:41:03.411Z,14.02
2024-04-24T11:43:31.233Z,13.15
2024-04-24T11:45:58.683Z,5.40
2024-04-24T11:48:40.327Z,11.05
2024-04-24T11:51:11.665Z,5.72
2024-04-24T11:53:39.132Z,23.67
2024-04-24T11:56:08.296Z,22.98
2024-04-24T11:58:37.165Z,9.13
2024-04-24T12:01:06.957Z,22.27
2024-04-24T12:03:36.522Z,19.83
2024-04-24T12:06:05.307Z,13.32
2024-04-24T12:08:32.789Z,8.45
2024-04-24T12:11:01.092Z,14.07
2024-04-24T12:13:31.849Z,17.67
2024-04-24T12:16:00.239Z,14.95
2024-04-24T12:18:28.883Z,19.38
2024-04-24T12:20:58.413Z,15.57
2024-04-24T12:23:27.917Z,21.20
2024-04-24T12:25:57.544Z,11.80
2024-04-24T12:28:26.119Z,30.97
2024-04-24T12:30:53.632Z,18.37
2024-04-24T12:33:21.405Z,16.75
2024-04-24T12:35:48.890Z,17.83
2024-04-24T12:38:16.286Z,20.83
2024-04-24T12:40:43.764Z,14.30
2024-04-24T12:43:14.118Z,22.77
2024-04-24T12:45:42.080Z,20.38
2024-04-24T12:48:09.743Z,22.07
2024-04-24T12:50:37.471Z,10.73
2024-04-24T12:53:05.897Z,15.48
2024-04-24T12:55:33.270Z,20.05
2024-04-24T12:58:00.660Z,9.13
2024-04-24T13:00:28.215Z,13.18
2024-04-24T13:02:55.938Z,22.35
2024-04-24T13:05:26.682Z,18.23
2024-04-24T13:07:54.104Z,16.13
2024-04-24T13:10:21.521Z,17.65
2024-04-24T13:12:48.853Z,20.65
2024-04-24T13:15:16.104Z,16.20
2024-04-24T13:17:44.564Z,20.88
2024-04-24T13:20:12.221Z,20.55
2024-04-24T13:22:40.247Z,21.38
2024-04-24T13:25:07.752Z,20.45
2024-04-24T13:27:35.181Z,26.40
2024-04-24T13:30:03.096Z,30.88
2024-04-24T13:32:30.753Z,24.83
2024-04-24T13:34:58.299Z,31.60
2024-04-24T13:37:25.946Z,32.35
2024-04-24T13:39:52.942Z,31.02
2024-04-24T13:42:21.272Z,23.00
2024-04-24T13:44:48.794Z,23.55
2024-04-24T13:47:16.476Z,30.03
2024-04-24T13:49:47.697Z,29.50
2024-04-24T13:52:15.097Z,21.83
2024-04-24T13:54:42.497Z,10.17
2024-04-24T13:57:10.032Z,33.38
2024-04-24T13:59:39.495Z,15.43
2024-04-24T14:02:07.629Z,15.67
2024-04-24T14:04:35.121Z,17.58
2024-04-24T14:07:02.511Z,22.63
2024-04-24T14:09:29.948Z,28.85
2024-04-24T14:11:57.433Z,31.25
2024-04-24T14:14:25.065Z,33.25
2024-04-24T14:16:52.838Z,60.03
2024-04-24T14:19:20.278Z,91.93
2024-04-24T14:21:47.718Z,67.57
2024-04-24T14:24:15.161Z,47.08
2024-04-24T14:26:42.621Z,41.47
2024-04-24T14:29:14.370Z,34.72
2024-04-24T14:31:43.146Z,30.25
2024-04-24T14:34:11.702Z,43.20
2024-04-24T14:36:39.734Z,40.53
2024-04-24T14:39:06.801Z,50.30
2024-04-24T14:41:34.363Z,46.13
2024-04-24T14:44:01.902Z,32.63
2024-04-24T14:46:29.451Z,52.60
2024-04-24T14:49:01.598Z,45.45
2024-04-24T14:51:30.199Z,59.22
2024-04-24T14:54:02.755Z,41.92
2024-04-24T14:56:30.710Z,50.88
2024-04-24T14:58:58.392Z,20.50
2024-04-24T15:01:26.022Z,44.72
2024-04-24T15:03:53.489Z,47.65
2024-04-24T15:06:21.012Z,43.70
2024-04-24T15:08:48.518Z,27.05
2024-04-24T15:11:16.019Z,49.00
2024-04-24T15:13:43.724Z,50.38
2024-04-24T15:16:11.259Z,40.65
2024-04-24T15:18:38.331Z,37.30
2024-04-24T15:21:06.123Z,35.38
2024-04-24T15:23:33.285Z,44.40
2024-04-24T15:26:01.917Z,31.42
2024-04-24T15:28:29.416Z,47.60
2024-04-24T15:30:56.916Z,53.22
2024-04-24T15:33:24.678Z,47.17
2024-04-24T15:35:52.307Z,56.15
2024-04-24T15:38:20.836Z,51.80
2024-04-24T15:40:48.350Z,43.50
2024-04-24T15:43:15.686Z,39.20
2024-04-24T15:45:43.454Z,39.13
2024-04-24T15:48:11.107Z,48.05
2024-04-24T15:50:38.717Z,73.15
2024-04-24T15:53:06.166Z,47.28
2024-04-24T15:55:33.545Z,53.43
2024-04-24T15:58:00.914Z,73.25
2024-04-24T16:00:28.946Z,72.15
2024-04-24T16:02:56.385Z,70.47
2024-04-24T16:05:23.530Z,54.67
2024-04-24T16:07:50.984Z,73.18
2024-04-24T16:10:18.428Z,74.47
2024-04-24T16:12:45.794Z,90.38
2024-04-24T16:15:13.209Z,65.47
2024-04-24T16:17:43.519Z,70.57
2024-04-24T16:20:14.596Z,74.37
2024-04-24T16:22:42.075Z,76.65
2024-04-24T16:25:09.529Z,111.60
2024-04-24T16:27:40.407Z,99.78
2024-04-24T16:30:09.921Z,99.60
2024-04-24T16:32:38.404Z,87.50
2024-04-24T16:35:06.202Z,120.43
2024-04-24T16:37:33.661Z,114.22
2024-04-24T16:40:01.012Z,106.55
2024-04-24T16:42:28.432Z,103.28
2024-04-24T16:44:56.592Z,73.68
2024-04-24T16:47:24.516Z,97.90
2024-04-24T16:49:51.608Z,91.32
2024-04-24T16:52:27.644Z,88.40
2024-04-24T16:54:56.553Z,83.65
2024-04-24T16:57:24.005Z,103.13
2024-04-24T16:59:52.187Z,106.97
2024-04-24T17:02:19.621Z,100.25
2024-04-24T17:04:47.059Z,70.53
2024-04-24T17:07:16.912Z,48.13
2024-04-24T17:09:44.896Z,82.30
2024-04-24T17:12:12.982Z,63.85
2024-04-24T17:14:40.354Z,47.17
2024-04-24T17:17:10.774Z,71.93
2024-04-24T17:19:40.225Z,74.43
2024-04-24T17:22:08.810Z,64.80
2024-04-24T17:24:36.221Z,80.38
2024-04-24T17:27:03.742Z,64.22
2024-04-24T17:29:31.242Z,66.35
2024-04-24T17:31:58.783Z,53.08
2024-04-24T17:34:26.229Z,68.45
2024-04-24T17:36:54.486Z,68.32
2024-04-24T17:39:21.947Z,76.10
2024-04-24T17:41:50.324Z,75.72
2024-04-24T17:44:17.309Z,83.78
2024-04-24T17:46:44.765Z,47.75
2024-04-24T17:49:12.577Z,59.45
2024-04-24T17:51:40.073Z,55.25
2024-04-24T17:54:07.548Z,87.22
2024-04-24T17:56:36.465Z,82.70
2024-04-24T17:59:03.527Z,80.70
2024-04-24T18:01:30.962Z,76.75
2024-04-24T18:03:58.471Z,82.00
2024-04-24T18:06:25.929Z,89.78
2024-04-24T18:08:53.337Z,124.55
2024-04-24T18:11:21.301Z,154.43
2024-04-24T18:13:52.289Z,206.38
2024-04-24T18:16:19.715Z,197.85
2024-04-24T18:18:47.309Z,686.67
2024-04-24T18:21:14.845Z,543.03
2024-04-24T18:23:42.278Z,314.83
2024-04-24T18:26:09.701Z,528.13
2024-04-24T18:28:37.156Z,563.55
2024-04-24T18:31:05.684Z,492.27
2024-04-24T18:33:33.338Z,569.67
2024-04-24T18:36:01.103Z,176.45
2024-04-24T18:38:28.662Z,239.02
2024-04-24T18:40:56.261Z,180.68
2024-04-24T18:43:23.673Z,250.98
2024-04-24T18:45:51.027Z,234.13
2024-04-24T18:48:20.312Z,310.67
2024-04-24T18:50:47.922Z,241.68
2024-04-24T18:53:15.879Z,520.20
2024-04-24T18:55:43.287Z,758.17
2024-04-24T18:58:10.882Z,399.27
2024-04-24T19:00:38.437Z,284.02
2024-04-24T19:03:06.122Z,243.63
2024-04-24T19:05:33.599Z,674.47
2024-04-24T19:08:01.213Z,875.00
2024-04-24T19:10:28.669Z,767.38
2024-04-24T19:12:56.046Z,562.75
2024-04-24T19:15:23.519Z,379.23
2024-04-24T19:17:51.027Z,186.95
2024-04-24T19:20:18.512Z,192.55
2024-04-24T19:22:46.004Z,262.75
2024-04-24T19:25:13.484Z,310.48
2024-04-24T19:27:41.948Z,204.98
2024-04-24T19:30:10.412Z,170.73
2024-04-24T19:32:38.257Z,164.57
2024-04-24T19:35:05.810Z,149.55
2024-04-24T19:37:33.241Z,192.98
2024-04-24T19:40:00.682Z,185.80
2024-04-24T19:42:30.529Z,222.30
2024-04-24T19:44:59.720Z,193.25
2024-04-24T19:47:27.461Z,193.50
2024-04-24T19:49:54.938Z,177.50
2024-04-24T19:52:22.362Z,185.57
2024-04-24T19:54:49.759Z,188.02
2024-04-24T19:57:17.211Z,158.70
2024-04-24T19:59:44.847Z,206.10
2024-04-24T20:02:13.469Z,198.02
2024-04-24T20:04:41.951Z,175.95
2024-04-24T20:07:09.443Z,184.27
2024-04-24T20:09:37.670Z,192.43
2024-04-24T20:12:05.435Z,228.18
2024-04-24T20:14:37.811Z,185.60
2024-04-24T20:17:05.514Z,196.27
2024-04-24T20:19:34.349Z,198.85
2024-04-24T20:22:01.889Z,183.30
2024-04-24T20:24:29.297Z,191.98
2024-04-24T20:26:56.679Z,205.50
2024-04-24T20:29:24.989Z,191.77
2024-04-24T20:31:52.877Z,166.20
2024-04-24T20:34:20.307Z,191.55
2024-04-24T20:36:47.814Z,144.70
2024-04-24T20:39:15.749Z,207.70
2024-04-24T20:41:43.481Z,252.50
2024-04-24T20:44:10.995Z,277.20
2024-04-24T20:46:44.883Z,248.48
2024-04-24T20:49:12.410Z,239.55
2024-04-24T20:51:40.586Z,257.55
2024-04-24T20:54:08.928Z,159.88
2024-04-24T20:56:36.487Z,176.13
2024-04-24T20:59:06.339Z,232.07
2024-04-24T21:01:33.401Z,258.25
2024-04-24T21:04:00.804Z,253.15
2024-04-24T21:06:28.577Z,704.03
2024-04-24T21:08:55.557Z,532.17
2024-04-24T21:11:25.109Z,481.27
2024-04-24T21:13:58.663Z,574.85
2024-04-24T21:16:25.832Z,549.33
2024-04-24T21:18:53.626Z,625.65
2024-04-24T21:21:21.387Z,325.10
2024-04-24T21:23:51.603Z,523.47
2024-04-24T21:26:19.053Z,411.02
2024-04-24T21:28:46.427Z,152.13
2024-04-24T21:31:13.886Z,171.68
2024-04-24T21:33:41.330Z,143.32
2024-04-24T21:36:08.735Z,237.27
2024-04-24T21:38:36.637Z,144.20
2024-04-24T21:41:18.989Z,118.13
2024-04-24T21:43:46.543Z,76.13
2024-04-24T21:46:15.290Z,73.80
2024-04-24T21:48:42.970Z,66.93
2024-04-24T21:51:10.973Z,48.03
2024-04-24T21:53:41.551Z,37.00
2024-04-24T21:56:08.655Z,79.10
2024-04-24T21:58:35.647Z,52.92
2024-04-24T22:01:03.124Z,45.57
2024-04-24T22:03:33.416Z,42.63
2024-04-24T22:06:02.347Z,63.33
2024-04-24T22:08:31.540Z,44.90
2024-04-24T22:10:58.512Z,64.15
2024-04-24T22:13:25.500Z,50.38
2024-04-24T22:15:52.412Z,66.22
2024-04-24T22:18:20.100Z,59.88
2024-04-24T22:20:47.303Z,69.70
2024-04-24T22:23:14.709Z,78.77
2024-04-24T22:25:42.033Z,43.65
2024-04-24T22:28:09.003Z,62.30
2024-04-24T22:30:37.083Z,64.45
2024-04-24T22:33:04.414Z,67.20
2024-04-24T22:35:31.535Z,69.47
2024-04-24T22:37:59.196Z,54.00
2024-04-24T22:40:26.726Z,76.60
2024-04-24T22:42:54.029Z,19.33
2024-04-24T22:45:22.478Z,59.78
2024-04-24T22:47:49.978Z,51.22
2024-04-24T22:50:18.489Z,44.53
2024-04-24T22:52:45.544Z,53.60
2024-04-24T22:55:12.590Z,52.47
2024-04-24T22:57:39.613Z,27.42
2024-04-24T23:00:07.958Z,22.55
2024-04-24T23:02:38.039Z,69.85
2024-04-24T23:05:06.149Z,23.55
2024-04-24T23:07:33.687Z,48.80
2024-04-24T23:10:01.528Z,40.15
2024-04-24T23:12:28.463Z,40.80
2024-04-24T23:14:55.918Z,34.63
2024-04-24T23:17:23.239Z,50.03
2024-04-24T23:19:50.807Z,48.92
2024-04-24T23:22:19.091Z,51.50
2024-04-24T23:24:46.518Z,49.47
2024-04-24T23:27:13.557Z,54.03
2024-04-24T23:29:43.068Z,2.25
2024-04-24T23:32:10.571Z,22.60
2024-04-24T23:34:37.556Z,36.67
2024-04-24T23:37:04.929Z,21.37
2024-04-24T23:39:32.421Z,34.80
2024-04-24T23:41:59.821Z,55.97
2024-04-24T23:44:26.805Z,35.00
2024-04-24T23:46:54.312Z,49.97
2024-04-24T23:49:21.707Z,21.08
2024-04-24T23:51:48.659Z,67.88
2024-04-24T23:54:15.992Z,72.75
2024-04-24T23:56:43.649Z,20.58
2024-04-24T23:59:10.731Z,26.17
